Time;durP1;ratioP1;P1;durP2;ratioP2;P2;SDS_P1;SDS_P2;PMS_P1;PMS_P2;Temp;Humidity;BMP_temperature;BMP_pressure;BME280_temperature;BME280_humidity;BME280_pressure;Samples;Min_cycle;Max_cycle;Signal;HPM_P1;HPM_P2
2023/12/20 00:01:41;;;;;;;19.58;2.05;;;;;;;;;;4997913;28;20042;-65
2023/12/20 00:04:08;;;;;;;12.32;1.77;;;;;;;;;;4998415;28;20033;-65
2023/12/20 00:06:34;;;;;;;10.90;1.85;;;;;;;;;;4997757;28;20026;-65
2023/12/20 00:09:00;;;;;;;10.60;1.80;;;;;;;;;;4997970;28;20034;-66
2023/12/20 00:11:26;;;;;;;11.60;1.88;;;;;;;;;;4998040;28;20045;-66
2023/12/20 00:13:52;;;;;;;13.20;2.47;;;;;;;;;;4998058;28;20033;-65
2023/12/20 00:16:19;;;;;;;12.05;2.25;;;;;;;;;;4997628;28;20033;-65
2023/12/20 00:18:45;;;;;;;17.83;2.65;;;;;;;;;;4999012;28;20156;-65
2023/12/20 00:21:11;;;;;;;14.90;2.25;;;;;;;;;;4998363;28;20043;-66
2023/12/20 00:23:37;;;;;;;16.27;2.05;;;;;;;;;;4998720;28;20036;-66
2023/12/20 00:26:03;;;;;;;13.55;1.60;;;;;;;;;;4997308;28;20029;-65
2023/12/20 00:28:29;;;;;;;12.23;1.90;;;;;;;;;;4997946;28;20038;-65
2023/12/20 00:30:55;;;;;;;13.80;2.20;;;;;;;;;;4997780;28;20615;-65
2023/12/20 00:33:22;;;;;;;22.02;3.25;;;;;;;;;;4997033;28;20044;-65
2023/12/20 00:35:48;;;;;;;11.73;2.00;;;;;;;;;;4997664;28;20128;-65
2023/12/20 00:38:14;;;;;;;14.10;1.65;;;;;;;;;;4995884;28;20029;-65
2023/12/20 00:40:40;;;;;;;12.82;2.13;;;;;;;;;;4995539;28;20033;-65
2023/12/20 00:43:06;;;;;;;17.27;1.92;;;;;;;;;;4996203;28;20033;-66
2023/12/20 00:45:32;;;;;;;15.32;2.25;;;;;;;;;;4997596;28;20037;-65
2023/12/20 00:47:59;;;;;;;11.45;2.10;;;;;;;;;;4997412;28;20033;-65
2023/12/20 00:50:25;;;;;;;12.85;1.83;;;;;;;;;;4997309;28;20042;-65
2023/12/20 00:52:51;;;;;;;13.32;2.03;;;;;;;;;;4995615;28;20030;-65
2023/12/20 00:55:17;;;;;;;11.45;2.08;;;;;;;;;;4995392;28;20041;-65
2023/12/20 00:57:43;;;;;;;8.98;1.30;;;;;;;;;;4995266;28;20160;-65
2023/12/20 01:00:09;;;;;;;12.55;2.05;;;;;;;;;;4996281;28;20041;-65
2023/12/20 01:02:35;;;;;;;8.52;1.80;;;;;;;;;;4996409;28;20056;-65
2023/12/20 01:05:02;;;;;;;14.20;2.13;;;;;;;;;;4997597;28;20041;-65
2023/12/20 01:07:28;;;;;;;16.58;2.05;;;;;;;;;;4996227;28;20022;-65
2023/12/20 01:09:54;;;;;;;11.63;2.40;;;;;;;;;;4996099;28;20486;-65
2023/12/20 01:12:20;;;;;;;12.25;2.00;;;;;;;;;;4996106;28;20033;-66
2023/12/20 01:14:46;;;;;;;12.73;2.17;;;;;;;;;;4996922;28;20095;-66
2023/12/20 01:17:13;;;;;;;14.18;2.63;;;;;;;;;;4997600;28;20444;-65
2023/12/20 01:19:39;;;;;;;12.25;1.88;;;;;;;;;;4997653;28;20849;-65
2023/12/20 01:22:05;;;;;;;12.23;2.08;;;;;;;;;;4998007;28;20124;-66
2023/12/20 01:24:31;;;;;;;11.65;1.85;;;;;;;;;;4996186;28;20032;-65
2023/12/20 01:26:57;;;;;;;14.23;2.00;;;;;;;;;;4996419;28;20040;-65
2023/12/20 01:29:23;;;;;;;12.10;3.55;;;;;;;;;;4997453;28;20041;-65
2023/12/20 01:31:50;;;;;;;17.63;2.38;;;;;;;;;;4997526;28;20116;-65
2023/12/20 01:34:16;;;;;;;15.07;2.63;;;;;;;;;;4996866;28;20040;-65
2023/12/20 01:36:42;;;;;;;16.23;2.20;;;;;;;;;;4996401;28;20029;-65
2023/12/20 01:39:08;;;;;;;24.70;3.17;;;;;;;;;;4997713;28;20041;-66
2023/12/20 01:41:34;;;;;;;18.63;3.90;;;;;;;;;;4995583;28;20030;-65
2023/12/20 01:44:00;;;;;;;18.15;2.25;;;;;;;;;;4996707;28;20037;-65
2023/12/20 01:46:26;;;;;;;11.77;2.65;;;;;;;;;;4997628;28;20896;-65
2023/12/20 01:48:53;;;;;;;15.30;1.90;;;;;;;;;;4998594;28;20029;-66
2023/12/20 01:51:19;;;;;;;13.43;2.38;;;;;;;;;;4999242;28;20085;-65
2023/12/20 01:53:46;;;;;;;9.57;1.80;;;;;;;;;;4997412;28;20049;-65
2023/12/20 01:56:12;;;;;;;12.38;2.13;;;;;;;;;;4993548;28;20117;-66
2023/12/20 01:58:42;;;;;;;12.43;2.00;;;;;;;;;;4994814;28;20053;-65
2023/12/20 02:01:08;;;;;;;15.93;2.35;;;;;;;;;;4996434;28;21653;-66
2023/12/20 02:03:36;;;;;;;13.77;2.42;;;;;;;;;;4996315;28;20063;-65
2023/12/20 02:06:02;;;;;;;9.15;1.90;;;;;;;;;;4995841;28;20250;-66
2023/12/20 02:08:28;;;;;;;16.20;2.75;;;;;;;;;;4995237;28;20492;-65
2023/12/20 02:10:56;;;;;;;12.40;1.80;;;;;;;;;;4996218;28;20324;-65
2023/12/20 02:13:22;;;;;;;15.25;1.77;;;;;;;;;;4996377;28;20044;-66
2023/12/20 02:15:48;;;;;;;16.73;2.13;;;;;;;;;;4996050;28;20041;-66
2023/12/20 02:18:16;;;;;;;13.77;2.80;;;;;;;;;;4991938;28;20615;-66
2023/12/20 02:20:42;;;;;;;13.50;2.30;;;;;;;;;;4995122;28;20025;-65
2023/12/20 02:23:08;;;;;;;13.10;2.67;;;;;;;;;;4995935;28;20702;-66
2023/12/20 02:25:34;;;;;;;19.42;3.05;;;;;;;;;;4995655;28;20029;-65
2023/12/20 02:28:01;;;;;;;18.40;2.90;;;;;;;;;;4996059;28;20033;-65
2023/12/20 02:30:27;;;;;;;18.88;3.28;;;;;;;;;;4996017;28;20107;-66
2023/12/20 02:32:54;;;;;;;24.45;3.45;;;;;;;;;;4996478;28;20087;-65
2023/12/20 02:35:20;;;;;;;23.25;3.45;;;;;;;;;;4996897;28;20151;-66
2023/12/20 02:37:46;;;;;;;27.33;3.58;;;;;;;;;;4997273;28;20289;-65
2023/12/20 02:40:12;;;;;;;22.77;4.38;;;;;;;;;;4997411;28;20037;-66
2023/12/20 02:42:38;;;;;;;25.40;3.88;;;;;;;;;;4996398;28;20041;-65
2023/12/20 02:45:05;;;;;;;24.48;3.28;;;;;;;;;;4996406;28;21740;-66
2023/12/20 02:47:31;;;;;;;19.20;3.42;;;;;;;;;;4997485;28;20034;-65
2023/12/20 02:49:57;;;;;;;17.48;3.63;;;;;;;;;;4997744;28;20034;-65
2023/12/20 02:52:24;;;;;;;15.48;3.13;;;;;;;;;;4997532;28;20041;-66
2023/12/20 02:54:50;;;;;;;24.83;4.10;;;;;;;;;;4997386;28;20033;-65
2023/12/20 02:57:16;;;;;;;20.33;4.43;;;;;;;;;;4996002;28;20041;-66
2023/12/20 02:59:42;;;;;;;23.58;4.10;;;;;;;;;;4996209;28;20794;-65
2023/12/20 03:02:08;;;;;;;22.45;3.85;;;;;;;;;;4995969;28;20044;-65
2023/12/20 03:04:34;;;;;;;23.92;4.55;;;;;;;;;;4998929;28;20029;-66
2023/12/20 03:07:00;;;;;;;21.92;4.32;;;;;;;;;;5001668;28;20029;-66
2023/12/20 03:09:27;;;;;;;23.17;4.43;;;;;;;;;;5000900;28;20410;-66
2023/12/20 03:11:53;;;;;;;25.35;4.25;;;;;;;;;;5001330;28;20152;-65
2023/12/20 03:14:19;;;;;;;19.45;3.63;;;;;;;;;;5001657;28;20061;-66
2023/12/20 03:16:51;;;;;;;26.75;4.03;;;;;;;;;;4999677;28;20060;-66
2023/12/20 03:19:18;;;;;;;21.27;3.70;;;;;;;;;;5001487;28;20029;-66
2023/12/20 03:21:44;;;;;;;21.80;3.22;;;;;;;;;;4999830;28;20033;-66
2023/12/20 03:24:10;;;;;;;21.38;3.58;;;;;;;;;;5000226;28;20033;-66
2023/12/20 03:26:36;;;;;;;21.48;3.28;;;;;;;;;;5000154;28;20041;-66
2023/12/20 03:29:02;;;;;;;21.98;4.43;;;;;;;;;;4999843;28;20037;-66
2023/12/20 03:31:28;;;;;;;23.95;3.95;;;;;;;;;;5000892;28;20033;-66
2023/12/20 03:33:54;;;;;;;26.10;3.97;;;;;;;;;;4999926;28;20048;-66
2023/12/20 03:36:21;;;;;;;22.13;3.55;;;;;;;;;;5000974;28;20087;-66
2023/12/20 03:38:47;;;;;;;21.30;3.22;;;;;;;;;;5001376;28;20188;-66
2023/12/20 03:41:13;;;;;;;22.50;4.15;;;;;;;;;;5000500;28;20711;-66
2023/12/20 03:43:40;;;;;;;30.40;4.35;;;;;;;;;;5000540;28;20036;-66
2023/12/20 03:46:06;;;;;;;21.77;3.92;;;;;;;;;;5000212;28;20034;-66
2023/12/20 03:48:32;;;;;;;19.45;3.90;;;;;;;;;;5000399;28;20028;-65
2023/12/20 03:50:58;;;;;;;22.90;3.65;;;;;;;;;;5000773;28;20038;-65
2023/12/20 03:53:24;;;;;;;26.67;4.53;;;;;;;;;;4997317;28;20041;-66
2023/12/20 03:55:50;;;;;;;27.25;3.53;;;;;;;;;;5000611;28;20044;-65
2023/12/20 03:58:16;;;;;;;23.90;4.55;;;;;;;;;;4999723;28;20057;-66
2023/12/20 04:00:42;;;;;;;28.02;4.20;;;;;;;;;;4999931;28;20040;-66
2023/12/20 04:03:08;;;;;;;17.90;3.65;;;;;;;;;;5000077;28;20026;-66
2023/12/20 04:05:34;;;;;;;23.90;3.85;;;;;;;;;;4999120;28;20035;-65
2023/12/20 04:08:03;;;;;;;23.25;4.10;;;;;;;;;;5000934;28;20118;-66
2023/12/20 04:10:29;;;;;;;29.92;4.53;;;;;;;;;;4999591;28;20071;-66
2023/12/20 04:12:55;;;;;;;25.25;4.70;;;;;;;;;;4999894;28;20038;-66
2023/12/20 04:15:21;;;;;;;23.10;3.42;;;;;;;;;;4999710;28;20038;-66
2023/12/20 04:17:47;;;;;;;18.27;4.15;;;;;;;;;;5000145;28;20083;-66
2023/12/20 04:20:13;;;;;;;20.90;3.58;;;;;;;;;;4999836;28;20040;-66
2023/12/20 04:22:39;;;;;;;24.20;4.35;;;;;;;;;;4999542;28;20041;-66
2023/12/20 04:25:05;;;;;;;22.80;4.15;;;;;;;;;;5000224;28;20030;-66
2023/12/20 04:27:31;;;;;;;26.05;4.53;;;;;;;;;;4999702;28;20889;-66
2023/12/20 04:29:57;;;;;;;23.88;3.72;;;;;;;;;;5012558;28;20708;-66
2023/12/20 04:32:23;;;;;;;20.95;4.38;;;;;;;;;;4999792;28;20033;-66
2023/12/20 04:34:49;;;;;;;33.00;3.67;;;;;;;;;;4999944;28;20034;-66
2023/12/20 04:37:15;;;;;;;26.45;3.40;;;;;;;;;;4999970;28;20045;-66
2023/12/20 04:39:42;;;;;;;20.92;3.83;;;;;;;;;;5000282;28;20030;-66
2023/12/20 04:42:08;;;;;;;26.05;3.85;;;;;;;;;;5000006;28;20029;-65
2023/12/20 04:44:34;;;;;;;22.95;3.33;;;;;;;;;;4999349;28;21333;-66
2023/12/20 04:47:01;;;;;;;24.33;3.92;;;;;;;;;;4999583;28;20025;-66
2023/12/20 04:49:27;;;;;;;25.83;4.00;;;;;;;;;;4999874;28;21349;-65
2023/12/20 04:51:53;;;;;;;23.65;4.32;;;;;;;;;;4999171;28;20120;-66
2023/12/20 04:54:19;;;;;;;26.27;4.20;;;;;;;;;;4999380;28;20762;-66
2023/12/20 04:56:45;;;;;;;25.67;3.72;;;;;;;;;;4999773;28;20683;-66
2023/12/20 04:59:11;;;;;;;24.40;4.38;;;;;;;;;;4999183;28;20079;-66
2023/12/20 05:01:37;;;;;;;24.30;4.28;;;;;;;;;;4999092;28;20034;-66
2023/12/20 05:04:03;;;;;;;26.42;5.07;;;;;;;;;;4999348;28;20048;-66
2023/12/20 05:06:29;;;;;;;24.17;4.30;;;;;;;;;;5001294;28;20034;-66
2023/12/20 05:08:55;;;;;;;28.50;4.10;;;;;;;;;;4998921;28;20039;-66
2023/12/20 05:11:22;;;;;;;29.20;4.70;;;;;;;;;;4999155;28;20842;-66
2023/12/20 05:13:48;;;;;;;29.15;4.30;;;;;;;;;;4998645;28;20029;-66
2023/12/20 05:16:14;;;;;;;21.63;3.75;;;;;;;;;;4999208;28;20056;-66
2023/12/20 05:18:40;;;;;;;21.77;4.53;;;;;;;;;;4999374;28;20099;-66
2023/12/20 05:21:06;;;;;;;25.60;4.10;;;;;;;;;;4999079;28;20034;-66
2023/12/20 05:23:32;;;;;;;20.55;3.85;;;;;;;;;;4997377;28;20073;-66
2023/12/20 05:25:59;;;;;;;25.20;3.75;;;;;;;;;;4997698;28;20123;-66
2023/12/20 05:28:25;;;;;;;25.88;4.10;;;;;;;;;;4999399;28;20038;-66
2023/12/20 05:30:51;;;;;;;19.00;3.22;;;;;;;;;;4999015;28;20044;-66
2023/12/20 05:33:17;;;;;;;19.90;3.63;;;;;;;;;;4999583;28;20068;-66
2023/12/20 05:35:43;;;;;;;26.40;4.40;;;;;;;;;;4998559;28;20940;-66
2023/12/20 05:38:09;;;;;;;20.77;4.25;;;;;;;;;;4998313;28;20041;-65
2023/12/20 05:40:35;;;;;;;26.50;4.15;;;;;;;;;;4998324;28;20758;-66
2023/12/20 05:43:02;;;;;;;27.17;4.78;;;;;;;;;;4998807;28;20513;-66
2023/12/20 05:45:28;;;;;;;23.88;4.15;;;;;;;;;;4998672;28;20037;-66
2023/12/20 05:47:54;;;;;;;21.42;3.60;;;;;;;;;;4998905;28;20043;-66
2023/12/20 05:50:21;;;;;;;24.90;4.18;;;;;;;;;;4998280;28;20040;-66
2023/12/20 05:52:47;;;;;;;20.88;3.75;;;;;;;;;;4998156;28;20591;-66
2023/12/20 05:55:13;;;;;;;28.33;3.53;;;;;;;;;;4998863;28;20071;-66
2023/12/20 05:57:39;;;;;;;21.58;3.75;;;;;;;;;;4998162;28;20049;-66
2023/12/20 06:00:06;;;;;;;19.92;3.75;;;;;;;;;;4999578;28;20044;-65
2023/12/20 06:02:32;;;;;;;17.08;4.07;;;;;;;;;;4998746;28;20014;-66
2023/12/20 06:04:58;;;;;;;22.77;4.30;;;;;;;;;;4998599;28;20079;-66
2023/12/20 06:07:24;;;;;;;37.25;4.70;;;;;;;;;;4998818;28;20030;-66
2023/12/20 06:09:50;;;;;;;27.92;4.28;;;;;;;;;;4998839;28;20040;-66
2023/12/20 06:12:17;;;;;;;28.42;5.72;;;;;;;;;;4997718;28;20068;-66
2023/12/20 06:14:43;;;;;;;22.77;3.88;;;;;;;;;;4999262;28;20036;-66
2023/12/20 06:17:09;;;;;;;21.85;3.72;;;;;;;;;;4998421;28;20091;-66
2023/12/20 06:19:35;;;;;;;25.80;4.00;;;;;;;;;;4999330;28;20041;-66
2023/12/20 06:22:01;;;;;;;27.02;4.15;;;;;;;;;;4996409;28;20052;-66
2023/12/20 06:24:28;;;;;;;21.63;3.60;;;;;;;;;;4999578;28;20770;-66
2023/12/20 06:26:55;;;;;;;28.38;4.43;;;;;;;;;;4997326;28;20143;-66
2023/12/20 06:29:21;;;;;;;24.55;3.85;;;;;;;;;;4998190;28;20110;-66
2023/12/20 06:31:47;;;;;;;26.90;4.65;;;;;;;;;;4998599;28;20083;-66
2023/12/20 06:34:13;;;;;;;28.40;6.55;;;;;;;;;;4998601;28;20041;-66
2023/12/20 06:36:39;;;;;;;24.80;4.30;;;;;;;;;;4999119;28;20029;-66
2023/12/20 06:39:05;;;;;;;25.58;4.05;;;;;;;;;;4998437;28;20046;-66
2023/12/20 06:41:31;;;;;;;20.30;4.03;;;;;;;;;;5002287;28;20367;-66
2023/12/20 06:43:57;;;;;;;28.17;4.90;;;;;;;;;;5001818;28;20648;-66
2023/12/20 06:46:24;;;;;;;19.02;4.00;;;;;;;;;;5002685;28;20033;-67
2023/12/20 06:48:50;;;;;;;16.88;3.65;;;;;;;;;;5001036;28;20497;-66
2023/12/20 06:51:16;;;;;;;30.70;3.78;;;;;;;;;;5002568;28;20539;-66
2023/12/20 06:53:43;;;;;;;26.70;4.55;;;;;;;;;;5003000;28;20078;-66
2023/12/20 06:56:09;;;;;;;18.13;3.35;;;;;;;;;;5002764;28;20489;-66
2023/12/20 06:58:37;;;;;;;21.48;4.57;;;;;;;;;;5003165;28;20066;-66
2023/12/20 07:01:04;;;;;;;21.35;4.35;;;;;;;;;;5003342;28;20164;-66
2023/12/20 07:03:30;;;;;;;20.33;3.63;;;;;;;;;;4999227;28;20049;-66
2023/12/20 07:05:56;;;;;;;20.25;3.70;;;;;;;;;;5001506;28;20030;-66
2023/12/20 07:08:22;;;;;;;19.13;3.67;;;;;;;;;;5002707;28;20917;-66
2023/12/20 07:10:48;;;;;;;27.27;4.38;;;;;;;;;;5002262;28;20696;-66
2023/12/20 07:13:14;;;;;;;23.65;4.70;;;;;;;;;;5001713;28;20402;-66
2023/12/20 07:15:41;;;;;;;25.88;4.35;;;;;;;;;;5002343;28;20036;-66
2023/12/20 07:18:07;;;;;;;29.85;4.60;;;;;;;;;;4999960;28;20044;-66
2023/12/20 07:20:33;;;;;;;21.65;4.10;;;;;;;;;;5000723;28;20175;-66
2023/12/20 07:22:59;;;;;;;22.17;4.10;;;;;;;;;;5001451;28;20056;-66
2023/12/20 07:25:25;;;;;;;18.17;3.85;;;;;;;;;;5001989;28;20068;-66
2023/12/20 07:27:51;;;;;;;19.45;4.43;;;;;;;;;;4998839;28;21944;-66
2023/12/20 07:30:17;;;;;;;28.00;5.03;;;;;;;;;;5001997;28;20032;-66
2023/12/20 07:32:43;;;;;;;20.52;4.32;;;;;;;;;;5001584;28;20930;-66
2023/12/20 07:35:09;;;;;;;20.25;4.47;;;;;;;;;;5002466;28;20105;-66
2023/12/20 07:37:35;;;;;;;24.17;4.40;;;;;;;;;;5001883;28;20018;-66
2023/12/20 07:40:01;;;;;;;24.35;4.03;;;;;;;;;;5001260;28;20033;-66
2023/12/20 07:42:27;;;;;;;26.80;4.82;;;;;;;;;;5001103;28;20037;-66
2023/12/20 07:44:53;;;;;;;20.90;3.83;;;;;;;;;;5000648;28;20753;-66
2023/12/20 07:47:21;;;;;;;23.52;3.90;;;;;;;;;;4999796;28;20042;-66
2023/12/20 07:49:48;;;;;;;25.67;4.88;;;;;;;;;;5001490;28;20025;-66
2023/12/20 07:52:14;;;;;;;22.77;3.92;;;;;;;;;;5001212;28;20029;-66
2023/12/20 07:54:40;;;;;;;20.35;3.60;;;;;;;;;;5000536;28;20034;-66
2023/12/20 07:57:06;;;;;;;23.13;4.22;;;;;;;;;;5001077;28;20146;-66
2023/12/20 07:59:32;;;;;;;27.05;4.03;;;;;;;;;;5001088;28;20041;-66
2023/12/20 08:01:58;;;;;;;23.77;4.03;;;;;;;;;;5000884;28;20037;-66
2023/12/20 08:04:24;;;;;;;26.88;4.50;;;;;;;;;;5001773;28;20563;-66
2023/12/20 08:06:51;;;;;;;17.55;3.90;;;;;;;;;;5000201;28;20525;-66
2023/12/20 08:09:17;;;;;;;24.75;4.78;;;;;;;;;;5001206;28;21470;-66
2023/12/20 08:11:49;;;;;;;23.38;4.63;;;;;;;;;;5001871;28;20931;-66
2023/12/20 08:14:16;;;;;;;22.92;4.25;;;;;;;;;;5001621;28;20080;-66
2023/12/20 08:16:42;;;;;;;21.77;4.05;;;;;;;;;;4999946;28;20041;-66
2023/12/20 08:19:08;;;;;;;21.88;3.72;;;;;;;;;;5002178;28;20103;-66
2023/12/20 08:21:34;;;;;;;22.25;4.75;;;;;;;;;;5002791;28;20029;-67
2023/12/20 08:24:01;;;;;;;21.70;3.70;;;;;;;;;;5001212;28;21605;-66
2023/12/20 08:26:27;;;;;;;17.10;3.00;;;;;;;;;;5001428;28;21873;-66
2023/12/20 08:28:53;;;;;;;23.33;4.05;;;;;;;;;;4999970;28;20801;-67
2023/12/20 08:31:19;;;;;;;24.45;4.38;;;;;;;;;;5001584;28;20100;-66
2023/12/20 08:33:46;;;;;;;17.98;3.40;;;;;;;;;;5000985;28;20495;-66
2023/12/20 08:36:12;;;;;;;18.02;3.25;;;;;;;;;;5001255;28;20112;-66
2023/12/20 08:38:38;;;;;;;20.65;4.32;;;;;;;;;;5001154;28;20170;-66
2023/12/20 08:41:05;;;;;;;22.67;3.80;;;;;;;;;;5001413;28;21411;-66
2023/12/20 08:43:31;;;;;;;17.83;2.75;;;;;;;;;;5001150;28;20033;-66
2023/12/20 08:45:58;;;;;;;20.38;3.42;;;;;;;;;;5001587;28;20552;-66
2023/12/20 08:48:24;;;;;;;17.40;3.03;;;;;;;;;;5001344;28;20433;-66
2023/12/20 08:50:51;;;;;;;17.33;2.88;;;;;;;;;;5000070;28;20060;-66
2023/12/20 08:53:18;;;;;;;11.27;1.50;;;;;;;;;;5001290;28;20025;-66
2023/12/20 08:55:44;;;;;;;6.45;0.98;;;;;;;;;;4999543;28;20151;-66
2023/12/20 08:58:10;;;;;;;8.18;1.30;;;;;;;;;;5001374;28;20180;-65
2023/12/20 09:00:36;;;;;;;10.57;1.20;;;;;;;;;;5001553;28;20033;-65
2023/12/20 09:03:02;;;;;;;8.85;1.27;;;;;;;;;;5000249;28;21084;-66
2023/12/20 09:05:28;;;;;;;7.93;1.35;;;;;;;;;;5000698;28;20145;-66
2023/12/20 09:07:55;;;;;;;11.73;1.73;;;;;;;;;;5000557;28;20034;-65
2023/12/20 09:10:22;;;;;;;13.30;1.85;;;;;;;;;;5000598;28;20926;-66
2023/12/20 09:12:56;;;;;;;14.77;1.48;;;;;;;;;;5000175;28;20156;-66
2023/12/20 09:15:24;;;;;;;11.30;1.65;;;;;;;;;;4997441;28;20551;-66
2023/12/20 09:17:50;;;;;;;10.10;1.52;;;;;;;;;;4999350;28;20416;-66
2023/12/20 09:20:16;;;;;;;7.95;1.13;;;;;;;;;;4999115;28;20037;-66
2023/12/20 09:22:42;;;;;;;7.80;1.40;;;;;;;;;;4998773;28;20935;-66
2023/12/20 09:25:08;;;;;;;11.63;1.45;;;;;;;;;;5000305;28;20131;-65
2023/12/20 09:27:34;;;;;;;3.75;0.90;;;;;;;;;;4999065;28;20026;-65
2023/12/20 09:30:00;;;;;;;4.80;0.80;;;;;;;;;;4999273;28;20075;-64
2023/12/20 09:32:26;;;;;;;6.95;1.10;;;;;;;;;;4998739;28;20636;-64
2023/12/20 09:34:52;;;;;;;3.50;0.63;;;;;;;;;;4999097;28;21830;-65
2023/12/20 09:37:18;;;;;;;7.22;0.95;;;;;;;;;;4998098;28;20029;-65
2023/12/20 09:39:44;;;;;;;8.50;0.80;;;;;;;;;;4996384;28;20158;-64
2023/12/20 09:42:12;;;;;;;7.40;0.95;;;;;;;;;;4997717;28;20033;-64
2023/12/20 09:44:42;;;;;;;8.90;1.27;;;;;;;;;;4999842;28;20088;-64
2023/12/20 09:47:08;;;;;;;10.65;1.42;;;;;;;;;;4998663;28;20029;-64
2023/12/20 09:49:35;;;;;;;9.15;2.97;;;;;;;;;;4999698;28;20034;-64
2023/12/20 09:52:01;;;;;;;10.50;1.13;;;;;;;;;;4998758;28;20068;-64
2023/12/20 09:54:29;;;;;;;8.35;1.45;;;;;;;;;;4997678;28;20029;-64
2023/12/20 09:56:55;;;;;;;5.20;1.10;;;;;;;;;;4998532;28;21037;-64
2023/12/20 09:59:21;;;;;;;8.93;1.40;;;;;;;;;;4999113;28;20159;-64
2023/12/20 10:01:47;;;;;;;11.38;1.35;;;;;;;;;;4998093;28;20479;-65
2023/12/20 10:04:14;;;;;;;7.53;1.60;;;;;;;;;;4998862;28;20040;-64
2023/12/20 10:06:43;;;;;;;11.77;1.58;;;;;;;;;;4999557;28;21096;-64
2023/12/20 10:09:12;;;;;;;13.80;1.88;;;;;;;;;;4998721;28;20021;-64
2023/12/20 10:11:39;;;;;;;9.75;1.48;;;;;;;;;;4998824;28;20025;-64
2023/12/20 10:14:05;;;;;;;8.82;1.40;;;;;;;;;;4995008;28;21854;-64
2023/12/20 10:16:32;;;;;;;12.68;1.90;;;;;;;;;;4998416;28;20037;-64
2023/12/20 10:18:58;;;;;;;11.70;2.05;;;;;;;;;;5000011;28;20111;-64
2023/12/20 10:21:26;;;;;;;10.23;2.10;;;;;;;;;;4999385;28;20124;-64
2023/12/20 10:23:52;;;;;;;14.90;1.95;;;;;;;;;;4999976;28;20038;-65
2023/12/20 10:26:22;;;;;;;12.82;1.98;;;;;;;;;;4999261;28;21799;-65
2023/12/20 10:28:51;;;;;;;9.23;1.80;;;;;;;;;;5001286;28;20068;-64
2023/12/20 10:31:28;;;;;;;13.88;2.22;;;;;;;;;;4998506;28;20120;-64
2023/12/20 10:33:54;;;;;;;14.88;1.92;;;;;;;;;;4998472;28;20462;-65
2023/12/20 10:36:21;;;;;;;16.98;2.30;;;;;;;;;;4997817;28;20224;-65
2023/12/20 10:38:49;;;;;;;15.18;1.88;;;;;;;;;;4998770;28;20116;-65
2023/12/20 10:41:17;;;;;;;15.20;2.53;;;;;;;;;;4997998;28;20030;-65
2023/12/20 10:43:43;;;;;;;18.05;2.35;;;;;;;;;;4999930;28;20117;-65
2023/12/20 10:46:09;;;;;;;19.15;2.10;;;;;;;;;;4998257;28;20044;-65
2023/12/20 10:48:36;;;;;;;14.15;2.60;;;;;;;;;;4999711;28;20037;-65
2023/12/20 10:51:02;;;;;;;11.65;2.05;;;;;;;;;;5000109;28;20062;-65
2023/12/20 10:53:29;;;;;;;14.50;2.92;;;;;;;;;;5000289;28;20096;-65
2023/12/20 10:55:59;;;;;;;12.23;2.38;;;;;;;;;;5000651;28;20377;-65
2023/12/20 10:58:26;;;;;;;10.32;1.98;;;;;;;;;;5000642;28;20473;-65
2023/12/20 11:00:58;;;;;;;11.35;1.95;;;;;;;;;;4995337;28;20053;-65
2023/12/20 11:03:25;;;;;;;17.40;2.90;;;;;;;;;;4998541;28;20137;-65
2023/12/20 11:05:59;;;;;;;16.95;2.80;;;;;;;;;;4999048;28;20025;-65
2023/12/20 11:08:39;;;;;;;13.48;2.25;;;;;;;;;;4997535;28;20148;-65
2023/12/20 11:11:11;;;;;;;14.18;2.38;;;;;;;;;;4997909;28;20026;-64
2023/12/20 11:13:41;;;;;;;16.45;2.13;;;;;;;;;;4997688;28;20044;-65
2023/12/20 11:16:08;;;;;;;15.18;2.20;;;;;;;;;;4997418;28;20041;-65
2023/12/20 11:18:34;;;;;;;22.58;2.63;;;;;;;;;;4998673;28;20117;-65
2023/12/20 11:21:04;;;;;;;16.02;2.40;;;;;;;;;;4995909;28;20038;-65
2023/12/20 11:23:33;;;;;;;14.68;2.33;;;;;;;;;;4998733;28;20032;-65
2023/12/20 11:25:59;;;;;;;20.48;2.28;;;;;;;;;;4998285;28;20040;-65
2023/12/20 11:28:26;;;;;;;16.90;2.92;;;;;;;;;;5002131;28;20121;-65
2023/12/20 11:30:53;;;;;;;14.73;2.28;;;;;;;;;;4998799;28;20591;-65
2023/12/20 11:33:25;;;;;;;13.73;2.60;;;;;;;;;;4994112;28;20045;-65
2023/12/20 11:35:52;;;;;;;16.50;2.60;;;;;;;;;;4999797;28;20037;-65
2023/12/20 11:38:21;;;;;;;20.25;3.20;;;;;;;;;;4999601;28;20987;-65
2023/12/20 11:40:49;;;;;;;18.80;2.85;;;;;;;;;;4998493;28;20121;-65
2023/12/20 11:43:30;;;;;;;14.52;2.92;;;;;;;;;;4999278;28;20064;-65
2023/12/20 11:46:02;;;;;;;15.07;2.50;;;;;;;;;;4999655;28;20029;-65
2023/12/20 11:48:28;;;;;;;17.27;2.83;;;;;;;;;;4999417;28;20025;-65
2023/12/20 11:50:55;;;;;;;10.52;2.85;;;;;;;;;;5000213;28;20129;-65
2023/12/20 11:53:21;;;;;;;15.93;2.78;;;;;;;;;;5000012;28;20112;-65
2023/12/20 11:55:48;;;;;;;21.80;2.90;;;;;;;;;;4998096;28;20073;-65
2023/12/20 11:58:16;;;;;;;21.90;3.40;;;;;;;;;;4997235;28;20049;-65
2023/12/20 12:00:43;;;;;;;18.08;2.88;;;;;;;;;;4998308;28;21666;-65
2023/12/20 12:03:09;;;;;;;18.52;3.15;;;;;;;;;;4993943;28;20953;-65
2023/12/20 12:05:35;;;;;;;16.23;2.80;;;;;;;;;;4996631;28;20067;-65
2023/12/20 12:08:02;;;;;;;26.23;4.22;;;;;;;;;;4995502;28;20405;-65
2023/12/20 12:10:29;;;;;;;11.13;2.58;;;;;;;;;;4998495;28;20056;-65
2023/12/20 12:12:55;;;;;;;14.88;2.80;;;;;;;;;;5000899;28;20033;-65
2023/12/20 12:15:22;;;;;;;15.50;2.72;;;;;;;;;;4997465;28;20029;-65
2023/12/20 12:17:57;;;;;;;14.23;2.75;;;;;;;;;;5000341;28;21199;-65
2023/12/20 12:20:24;;;;;;;13.02;2.45;;;;;;;;;;5000518;28;20036;-65
2023/12/20 12:23:03;;;;;;;19.45;3.78;;;;;;;;;;5001919;28;20025;-65
2023/12/20 12:25:31;;;;;;;18.10;3.20;;;;;;;;;;5000499;28;20486;-65
2023/12/20 12:27:57;;;;;;;13.65;2.10;;;;;;;;;;5001927;28;20025;-65
2023/12/20 12:30:23;;;;;;;15.63;2.35;;;;;;;;;;4999025;28;20026;-65
2023/12/20 12:32:49;;;;;;;15.63;2.63;;;;;;;;;;4998774;28;20030;-65
2023/12/20 12:35:15;;;;;;;12.35;1.92;;;;;;;;;;5000604;28;20481;-65
2023/12/20 12:37:42;;;;;;;15.00;2.38;;;;;;;;;;5000203;28;20037;-65
2023/12/20 12:40:11;;;;;;;11.75;1.98;;;;;;;;;;5002372;28;20025;-65
2023/12/20 12:42:38;;;;;;;12.07;2.22;;;;;;;;;;5001666;28;20034;-65
2023/12/20 12:45:04;;;;;;;14.13;2.35;;;;;;;;;;4999341;28;20034;-65
2023/12/20 12:47:31;;;;;;;12.95;2.13;;;;;;;;;;5000712;28;20358;-65
2023/12/20 12:49:57;;;;;;;12.30;1.77;;;;;;;;;;5000748;28;21838;-65
2023/12/20 12:52:23;;;;;;;13.88;2.03;;;;;;;;;;5001298;28;20066;-65
2023/12/20 12:54:49;;;;;;;16.30;2.75;;;;;;;;;;5000671;28;20057;-65
2023/12/20 12:57:17;;;;;;;11.32;2.13;;;;;;;;;;4999229;28;20057;-65
2023/12/20 12:59:45;;;;;;;17.52;2.28;;;;;;;;;;5000586;28;20088;-65
2023/12/20 13:02:11;;;;;;;17.85;3.22;;;;;;;;;;4999874;28;20041;-65
2023/12/20 13:04:37;;;;;;;15.75;3.55;;;;;;;;;;5000400;28;20026;-65
2023/12/20 13:07:04;;;;;;;10.40;1.83;;;;;;;;;;5000665;28;20037;-65
2023/12/20 13:09:30;;;;;;;19.73;3.58;;;;;;;;;;5000681;28;21883;-65
2023/12/20 13:11:56;;;;;;;11.23;2.40;;;;;;;;;;4999979;28;20037;-65
2023/12/20 13:14:22;;;;;;;16.05;2.22;;;;;;;;;;5000233;28;20684;-65
2023/12/20 13:16:48;;;;;;;17.98;2.63;;;;;;;;;;4999926;28;20036;-65
2023/12/20 13:19:14;;;;;;;13.30;3.28;;;;;;;;;;4999152;28;20044;-65
2023/12/20 13:21:40;;;;;;;22.00;3.20;;;;;;;;;;5000074;28;20034;-65
2023/12/20 13:24:06;;;;;;;15.07;2.90;;;;;;;;;;5001024;28;20473;-65
2023/12/20 13:26:33;;;;;;;14.50;2.03;;;;;;;;;;4999927;28;20040;-65
2023/12/20 13:28:59;;;;;;;15.45;2.70;;;;;;;;;;5000221;28;20042;-65
2023/12/20 13:31:25;;;;;;;16.00;2.15;;;;;;;;;;5001025;28;20061;-65
2023/12/20 13:33:52;;;;;;;11.60;2.03;;;;;;;;;;4999586;28;20026;-65
2023/12/20 13:36:19;;;;;;;11.43;2.17;;;;;;;;;;5000671;28;20366;-65
2023/12/20 13:38:45;;;;;;;14.20;2.60;;;;;;;;;;4998029;28;20034;-65
2023/12/20 13:41:11;;;;;;;12.60;2.22;;;;;;;;;;4999319;28;20034;-65
2023/12/20 13:43:38;;;;;;;11.13;1.73;;;;;;;;;;4999764;28;20035;-65
2023/12/20 13:46:04;;;;;;;10.00;1.80;;;;;;;;;;4999635;28;20033;-65
2023/12/20 13:48:30;;;;;;;12.35;1.95;;;;;;;;;;4998592;28;20111;-65
2023/12/20 13:50:56;;;;;;;12.07;2.17;;;;;;;;;;4999393;28;20134;-65
2023/12/20 13:53:22;;;;;;;11.23;1.52;;;;;;;;;;5000023;28;20026;-65
2023/12/20 13:55:48;;;;;;;14.25;2.00;;;;;;;;;;4999970;28;20048;-65
2023/12/20 13:58:14;;;;;;;7.07;1.75;;;;;;;;;;4999977;28;20108;-65
2023/12/20 14:00:41;;;;;;;6.15;1.27;;;;;;;;;;4999800;28;20037;-65
2023/12/20 14:03:07;;;;;;;8.88;1.38;;;;;;;;;;5000299;28;20026;-65
2023/12/20 14:05:33;;;;;;;9.75;1.85;;;;;;;;;;4999450;28;20029;-65
2023/12/20 14:08:00;;;;;;;7.60;1.30;;;;;;;;;;5000275;28;20033;-65
2023/12/20 14:10:26;;;;;;;8.60;1.27;;;;;;;;;;4999544;28;20172;-65
2023/12/20 14:12:52;;;;;;;8.90;1.35;;;;;;;;;;4998008;28;20036;-65
2023/12/20 14:15:18;;;;;;;9.35;1.65;;;;;;;;;;4999556;28;20040;-66
2023/12/20 14:17:45;;;;;;;7.70;1.30;;;;;;;;;;4997958;28;20555;-65
2023/12/20 14:20:14;;;;;;;6.60;1.13;;;;;;;;;;5000132;28;20087;-65
2023/12/20 14:22:43;;;;;;;6.65;1.20;;;;;;;;;;4998722;28;20087;-65
2023/12/20 14:25:12;;;;;;;7.40;1.33;;;;;;;;;;4999607;28;20091;-66
2023/12/20 14:27:38;;;;;;;7.22;1.17;;;;;;;;;;4998869;28;20087;-66